createdAt,value
2018-02-08T00:01:08.439Z,31.67
2018-02-08T00:03:34.671Z,33.57
2018-02-08T00:06:00.942Z,32.57
2018-02-08T00:08:27.154Z,36.13
2018-02-08T00:10:53.388Z,35.07
2018-02-08T00:13:19.738Z,37.10
2018-02-08T00:15:46.768Z,34.87
2018-02-08T00:18:13.787Z,33.97
2018-02-08T00:20:40.123Z,32.57
2018-02-08T00:23:06.356Z,33.40
2018-02-08T00:25:32.674Z,35.80
2018-02-08T00:27:58.864Z,34.80
2018-02-08T00:30:25.140Z,34.87
2018-02-08T00:32:51.411Z,32.83
2018-02-08T00:35:17.629Z,33.63
2018-02-08T00:37:44.586Z,32.67
2018-02-08T00:40:10.960Z,33.20
2018-02-08T00:42:37.163Z,32.87
2018-02-08T00:45:03.523Z,34.77
2018-02-08T00:47:30.772Z,33.57
2018-02-08T00:49:57.159Z,32.30
2018-02-08T00:52:23.548Z,32.00
2018-02-08T00:54:50.606Z,34.67
2018-02-08T00:57:17.588Z,32.30
2018-02-08T00:59:43.991Z,32.30
2018-02-08T01:02:11.096Z,30.93
2018-02-08T01:04:38.282Z,31.93
2018-02-08T01:07:05.389Z,32.00
2018-02-08T01:09:31.663Z,32.50
2018-02-08T01:11:58.043Z,31.73
2018-02-08T01:14:24.409Z,30.60
2018-02-08T01:16:51.419Z,32.47
2018-02-08T01:19:17.599Z,31.80
2018-02-08T01:21:43.979Z,33.17
2018-02-08T01:24:10.206Z,32.13
2018-02-08T01:26:36.529Z,29.20
2018-02-08T01:29:02.814Z,28.90
2018-02-08T01:31:29.095Z,28.10
2018-02-08T01:33:55.529Z,28.10
2018-02-08T01:36:21.753Z,27.83
2018-02-08T01:38:48.082Z,29.40
2018-02-08T01:41:14.327Z,29.90
2018-02-08T01:43:40.563Z,28.20
2018-02-08T01:46:07.696Z,26.77
2018-02-08T01:48:35.368Z,30.97
2018-02-08T01:51:02.505Z,29.23
2018-02-08T01:53:29.627Z,28.53
2018-02-08T01:55:56.021Z,29.43
2018-02-08T01:58:22.600Z,28.17
2018-02-08T02:00:49.659Z,27.40
2018-02-08T02:03:16.656Z,26.70
2018-02-08T02:05:43.029Z,26.00
2018-02-08T02:08:09.325Z,27.23
2018-02-08T02:10:35.757Z,26.33
2018-02-08T02:13:02.031Z,25.67
2018-02-08T02:15:29.153Z,25.93
2018-02-08T02:17:55.339Z,26.90
2018-02-08T02:20:21.628Z,27.67
2018-02-08T02:22:48.574Z,27.80
2018-02-08T02:25:14.877Z,27.20
2018-02-08T02:27:41.101Z,27.23
2018-02-08T02:30:07.372Z,27.90
2018-02-08T02:32:33.773Z,28.30
2018-02-08T02:34:59.973Z,25.90
2018-02-08T02:37:26.126Z,28.73
2018-02-08T02:39:52.347Z,25.17
2018-02-08T02:42:18.674Z,27.13
2018-02-08T02:44:45.046Z,27.63
2018-02-08T02:47:12.352Z,27.43
2018-02-08T02:49:38.753Z,27.13
2018-02-08T02:52:05.272Z,26.50
2018-02-08T02:54:31.610Z,27.33
2018-02-08T02:56:58.075Z,25.00
2018-02-08T02:59:24.468Z,27.63
2018-02-08T03:01:50.766Z,26.00
2018-02-08T03:04:17.715Z,25.40
2018-02-08T03:06:44.693Z,27.30
2018-02-08T03:09:11.070Z,28.87
2018-02-08T03:11:38.248Z,28.50
2018-02-08T03:14:05.704Z,27.77
2018-02-08T03:16:32.846Z,27.17
2018-02-08T03:18:59.909Z,27.37
2018-02-08T03:21:26.248Z,24.60
2018-02-08T03:23:52.516Z,26.07
2018-02-08T03:26:18.744Z,27.17
2018-02-08T03:28:44.954Z,27.00
2018-02-08T03:31:11.385Z,29.00
2018-02-08T03:33:37.652Z,27.57
2018-02-08T03:36:04.675Z,27.07
2018-02-08T03:38:31.322Z,27.93
2018-02-08T03:40:59.111Z,29.57
2018-02-08T03:43:25.474Z,30.07
2018-02-08T03:45:51.821Z,27.83
2018-02-08T03:48:18.150Z,29.83
2018-02-08T03:50:44.354Z,28.43
2018-02-08T03:53:10.764Z,27.93
2018-02-08T03:55:37.176Z,28.33
2018-02-08T03:58:04.189Z,28.90
2018-02-08T04:00:30.412Z,30.80
2018-02-08T04:02:56.760Z,28.20
2018-02-08T04:05:23.099Z,31.00
2018-02-08T04:07:50.231Z,29.67
2018-02-08T04:10:16.854Z,28.47
2018-02-08T04:12:43.082Z,29.70
2018-02-08T04:15:09.511Z,28.20
2018-02-08T04:17:35.739Z,30.13
2018-02-08T04:20:02.021Z,30.57
2018-02-08T04:22:28.359Z,30.13
2018-02-08T04:24:54.662Z,28.93
2018-02-08T04:27:21.629Z,28.57
2018-02-08T04:29:47.963Z,30.13
2018-02-08T04:32:14.248Z,29.17
2018-02-08T04:34:41.187Z,27.30
2018-02-08T04:37:14.891Z,29.20
2018-02-08T04:39:53.418Z,29.70
2018-02-08T04:45:32.939Z,29.33
2018-02-08T04:48:06.173Z,28.70
2018-02-08T04:50:33.385Z,29.90
2018-02-08T04:52:59.714Z,28.80
2018-02-08T04:55:26.117Z,28.33
2018-02-08T04:57:52.405Z,29.53
2018-02-08T05:00:19.432Z,28.07
2018-02-08T05:02:45.741Z,29.43
2018-02-08T05:05:12.026Z,28.63
2018-02-08T05:07:38.452Z,30.57
2018-02-08T05:10:05.395Z,27.00
2018-02-08T05:12:31.706Z,26.33
2018-02-08T05:14:58.695Z,28.50
2018-02-08T05:17:24.938Z,27.17
2018-02-08T05:19:51.272Z,29.00
2018-02-08T05:22:17.532Z,29.40
2018-02-08T05:24:44.836Z,28.03
2018-02-08T05:27:11.191Z,29.33
2018-02-08T05:29:37.864Z,27.73
2018-02-08T05:32:04.912Z,30.07
2018-02-08T05:34:32.069Z,27.60
2018-02-08T05:36:58.422Z,29.37
2018-02-08T05:39:24.815Z,28.40
2018-02-08T05:41:51.845Z,29.17
2018-02-08T05:44:18.193Z,28.03
2018-02-08T05:46:45.236Z,28.07
2018-02-08T05:49:12.264Z,32.03
2018-02-08T05:51:39.284Z,32.10
2018-02-08T05:54:05.664Z,31.93
2018-02-08T05:56:32.100Z,31.00
2018-02-08T05:58:58.728Z,31.70
2018-02-08T06:01:25.948Z,34.13
2018-02-08T06:03:53.899Z,33.00
2018-02-08T06:06:20.208Z,35.07
2018-02-08T06:08:46.436Z,60.40
2018-02-08T06:11:12.698Z,61.00
2018-02-08T06:13:40.565Z,50.07
2018-02-08T06:16:07.702Z,45.13
2018-02-08T06:18:35.529Z,46.63
2018-02-08T06:21:02.031Z,52.87
2018-02-08T06:23:29.243Z,32.70
2018-02-08T06:25:55.528Z,33.77
2018-02-08T06:28:21.748Z,35.30
2018-02-08T06:30:48.005Z,32.37
2018-02-08T06:33:14.910Z,33.47
2018-02-08T06:35:41.820Z,33.70
2018-02-08T06:38:08.964Z,34.07
2018-02-08T06:40:35.414Z,36.80
2018-02-08T06:43:02.724Z,40.60
2018-02-08T06:45:28.983Z,45.07
2018-02-08T06:47:55.616Z,41.83
2018-02-08T06:50:21.866Z,40.20
2018-02-08T06:52:48.847Z,40.10
2018-02-08T06:55:15.149Z,33.37
2018-02-08T06:57:41.469Z,35.87
2018-02-08T07:00:08.499Z,33.67
2018-02-08T07:02:35.620Z,33.47
2018-02-08T07:05:01.920Z,34.10
2018-02-08T07:07:28.206Z,34.77
2018-02-08T07:09:54.553Z,35.10
2018-02-08T07:12:20.848Z,37.50
2018-02-08T07:14:47.204Z,36.30
2018-02-08T07:17:14.161Z,34.23
2018-02-08T07:19:40.443Z,37.87
2018-02-08T07:22:06.841Z,37.57
2018-02-08T07:24:33.048Z,37.37
2018-02-08T07:26:59.384Z,36.13
2018-02-08T07:29:25.571Z,32.80
2018-02-08T07:31:52.567Z,35.73
2018-02-08T07:34:18.779Z,33.83
2018-02-08T07:36:45.238Z,35.93
2018-02-08T07:39:11.503Z,33.17
2018-02-08T07:41:38.505Z,38.50
2018-02-08T07:44:04.675Z,38.50
2018-02-08T07:46:31.018Z,37.93
2018-02-08T07:48:58.030Z,39.50
2018-02-08T07:51:24.218Z,40.67
2018-02-08T07:53:50.613Z,39.60
2018-02-08T07:56:17.540Z,32.93
2018-02-08T07:58:43.789Z,32.57
2018-02-08T08:01:10.995Z,34.80
2018-02-08T08:03:37.332Z,32.90
2018-02-08T08:06:03.582Z,34.33
2018-02-08T08:08:30.591Z,33.93
2018-02-08T08:10:57.337Z,32.80
2018-02-08T08:13:23.599Z,38.50
2018-02-08T08:15:51.695Z,40.27
2018-02-08T08:18:18.094Z,37.80
2018-02-08T08:20:45.340Z,36.23
2018-02-08T08:23:12.523Z,38.00
2018-02-08T08:25:38.850Z,37.20
2018-02-08T08:28:05.615Z,36.67
2018-02-08T08:30:31.964Z,35.13
2018-02-08T08:32:58.414Z,34.57
2018-02-08T08:35:24.754Z,34.90
2018-02-08T08:37:51.778Z,35.50
2018-02-08T08:40:18.196Z,34.33
2018-02-08T08:42:44.554Z,35.70
2018-02-08T08:45:10.939Z,35.13
2018-02-08T08:47:37.416Z,34.70
2018-02-08T08:50:04.609Z,34.90
2018-02-08T08:52:31.068Z,35.30
2018-02-08T08:54:57.404Z,35.13
2018-02-08T08:57:23.900Z,46.60
2018-02-08T08:59:57.192Z,41.13
2018-02-08T09:02:23.772Z,37.67
2018-02-08T09:04:50.126Z,38.73
2018-02-08T09:07:17.133Z,37.20
2018-02-08T09:09:43.465Z,34.80
2018-02-08T09:12:09.657Z,33.00
2018-02-08T09:14:36.133Z,36.10
2018-02-08T09:17:02.389Z,34.80
2018-02-08T09:19:29.315Z,32.43
2018-02-08T09:21:56.383Z,36.10
2018-02-08T09:24:23.419Z,29.73
2018-02-08T09:26:50.479Z,32.30
2018-02-08T09:29:16.747Z,35.37
2018-02-08T09:31:42.936Z,32.23
2018-02-08T09:34:09.255Z,31.00
2018-02-08T09:36:35.571Z,33.73
2018-02-08T09:39:02.636Z,35.20
2018-02-08T09:41:28.956Z,35.77
2018-02-08T09:43:56.043Z,36.43
2018-02-08T09:46:22.450Z,35.63
2018-02-08T09:48:49.066Z,32.90
2018-02-08T09:51:16.277Z,32.30
2018-02-08T09:53:42.862Z,32.90
2018-02-08T09:56:10.292Z,32.87
2018-02-08T09:58:37.353Z,30.37
2018-02-08T10:01:05.409Z,31.17
2018-02-08T10:03:32.659Z,33.20
2018-02-08T10:05:59.622Z,33.00
2018-02-08T10:08:26.959Z,34.30
2018-02-08T10:10:53.214Z,32.33
2018-02-08T10:13:19.681Z,30.17
2018-02-08T10:15:45.941Z,29.27
2018-02-08T10:18:13.056Z,28.30
2018-02-08T10:20:39.444Z,29.53
2018-02-08T10:23:05.854Z,29.07
2018-02-08T10:25:32.167Z,28.90
2018-02-08T10:27:58.588Z,29.70
2018-02-08T10:30:25.212Z,30.07
2018-02-08T10:32:51.442Z,26.57
2018-02-08T10:35:17.927Z,27.93
2018-02-08T10:37:44.970Z,27.90
2018-02-08T10:40:11.876Z,28.63
2018-02-08T10:42:38.145Z,28.17
2018-02-08T10:45:04.446Z,29.03
2018-02-08T10:47:30.766Z,29.00
2018-02-08T10:49:57.141Z,31.17
2018-02-08T10:52:23.374Z,28.03
2018-02-08T10:54:49.746Z,30.70
2018-02-08T10:57:16.093Z,32.40
2018-02-08T10:59:43.975Z,30.30
2018-02-08T11:02:12.244Z,28.90
2018-02-08T11:04:39.456Z,29.70
2018-02-08T11:07:06.019Z,29.73
2018-02-08T11:09:33.160Z,29.13
2018-02-08T11:12:00.664Z,30.00
2018-02-08T11:14:27.281Z,30.07
2018-02-08T11:16:54.727Z,29.50
2018-02-08T11:19:21.896Z,30.50
2018-02-08T11:21:48.147Z,31.37
2018-02-08T11:24:14.722Z,32.40
2018-02-08T11:26:42.129Z,30.20
2018-02-08T11:29:08.527Z,30.00
2018-02-08T11:31:34.930Z,29.40
2018-02-08T11:34:01.946Z,29.30
2018-02-08T11:36:28.503Z,31.10
2018-02-08T11:38:54.821Z,30.87
2018-02-08T11:41:21.070Z,29.27
2018-02-08T11:43:48.945Z,30.80
2018-02-08T11:46:17.094Z,28.47
2018-02-08T11:48:44.337Z,30.60
2018-02-08T11:51:10.600Z,28.80
2018-02-08T11:53:37.804Z,30.57
2018-02-08T11:56:03.976Z,29.17
2018-02-08T11:58:31.699Z,29.10
2018-02-08T12:03:52.028Z,29.27
2018-02-08T12:06:19.150Z,28.57
2018-02-08T12:08:45.415Z,29.40
2018-02-08T12:11:12.673Z,28.97
2018-02-08T12:13:38.855Z,29.47
2018-02-08T12:16:05.430Z,27.37
2018-02-08T12:18:32.848Z,29.90
2018-02-08T12:20:59.292Z,28.43
2018-02-08T12:23:25.612Z,28.10
2018-02-08T12:25:52.001Z,27.90
2018-02-08T12:28:18.359Z,27.40
2018-02-08T12:30:44.696Z,28.40
2018-02-08T12:33:11.016Z,28.20
2018-02-08T12:35:37.252Z,27.67
2018-02-08T12:38:03.620Z,26.70
2018-02-08T12:40:30.841Z,28.03
2018-02-08T12:42:57.238Z,27.33
2018-02-08T12:45:23.637Z,26.87
2018-02-08T12:47:50.823Z,27.57
2018-02-08T12:50:17.749Z,26.20
2018-02-08T12:52:44.060Z,27.53
2018-02-08T12:55:10.362Z,25.10
2018-02-08T12:57:36.679Z,30.40
2018-02-08T13:00:03.155Z,27.00
2018-02-08T13:02:29.561Z,38.70
2018-02-08T13:04:56.762Z,40.73
2018-02-08T13:07:23.213Z,40.37
2018-02-08T13:09:49.430Z,29.03
2018-02-08T13:12:15.702Z,29.47
2018-02-08T13:14:43.218Z,29.00
2018-02-08T13:17:09.596Z,29.63
2018-02-08T13:19:37.039Z,28.10
2018-02-08T13:22:04.212Z,29.30
2018-02-08T13:24:30.613Z,29.83
2018-02-08T13:26:57.017Z,28.97
2018-02-08T13:29:23.413Z,29.90
2018-02-08T13:31:50.768Z,31.10
2018-02-08T13:34:16.998Z,31.40
2018-02-08T13:36:43.365Z,31.80
2018-02-08T13:39:11.641Z,32.47
2018-02-08T13:41:38.026Z,34.90
2018-02-08T13:44:04.205Z,36.57
2018-02-08T13:46:30.566Z,35.20
2018-02-08T13:49:00.030Z,35.80
2018-02-08T13:54:45.321Z,36.50
2018-02-08T13:57:17.804Z,32.13
2018-02-08T14:02:52.146Z,35.23
2018-02-08T14:05:18.540Z,43.03
2018-02-08T14:07:44.808Z,37.70
2018-02-08T14:10:11.936Z,38.27
2018-02-08T14:12:38.226Z,34.47
2018-02-08T14:15:04.713Z,36.00
2018-02-08T14:17:32.029Z,34.70
2018-02-08T14:19:58.679Z,49.00
2018-02-08T14:22:25.025Z,43.50
2018-02-08T14:24:51.409Z,36.50
2018-02-08T14:27:17.906Z,35.77
2018-02-08T14:29:44.958Z,33.67
2018-02-08T14:32:11.911Z,36.90
2018-02-08T14:34:38.083Z,35.80
2018-02-08T14:37:04.528Z,35.40
2018-02-08T14:39:30.738Z,35.47
2018-02-08T14:41:57.228Z,39.53
2018-02-08T14:44:23.718Z,37.70
2018-02-08T14:46:50.066Z,37.60
2018-02-08T14:49:17.187Z,38.80
2018-02-08T14:51:43.636Z,43.27
2018-02-08T14:54:09.984Z,37.23
2018-02-08T14:56:37.008Z,41.53
2018-02-08T14:59:03.408Z,40.13
2018-02-08T15:01:29.798Z,39.57
2018-02-08T15:03:56.173Z,40.40
2018-02-08T15:06:22.355Z,41.47
2018-02-08T15:08:49.523Z,40.13
2018-02-08T15:11:15.939Z,39.67
2018-02-08T15:13:42.205Z,37.77
2018-02-08T15:16:08.527Z,35.47
2018-02-08T15:18:35.011Z,38.37
2018-02-08T15:21:02.169Z,39.77
2018-02-08T15:23:29.365Z,38.30
2018-02-08T15:25:56.742Z,38.13
2018-02-08T15:28:23.487Z,38.40
2018-02-08T15:30:50.616Z,44.70
2018-02-08T15:33:16.847Z,40.60
2018-02-08T15:35:43.307Z,40.70
2018-02-08T15:38:10.254Z,42.17
2018-02-08T15:40:37.305Z,41.30
2018-02-08T15:43:04.512Z,42.83
2018-02-08T15:45:30.943Z,41.10
2018-02-08T15:47:57.313Z,43.10
2018-02-08T15:50:24.328Z,41.77
2018-02-08T15:52:50.918Z,42.07
2018-02-08T15:55:17.254Z,40.53
2018-02-08T15:57:43.626Z,41.90
2018-02-08T16:00:10.699Z,41.90
2018-02-08T16:02:37.908Z,43.90
2018-02-08T16:05:04.354Z,41.80
2018-02-08T16:07:30.757Z,40.80
2018-02-08T16:09:57.124Z,48.43
2018-02-08T16:12:25.194Z,87.47
2018-02-08T16:14:52.534Z,45.07
2018-02-08T16:17:18.889Z,41.87
2018-02-08T16:19:45.978Z,39.33
2018-02-08T16:22:12.217Z,40.73
2018-02-08T16:24:38.671Z,41.30
2018-02-08T16:27:05.112Z,39.57
2018-02-08T16:29:32.237Z,41.47
2018-02-08T16:31:58.520Z,42.07
2018-02-08T16:34:24.920Z,41.67
2018-02-08T16:36:52.114Z,40.40
2018-02-08T16:39:33.305Z,41.07
2018-02-08T16:41:59.650Z,41.97
2018-02-08T16:44:26.036Z,47.47
2018-02-08T16:46:52.486Z,43.40
2018-02-08T16:49:18.842Z,44.20
2018-02-08T16:51:45.498Z,42.77
2018-02-08T16:54:11.729Z,44.00
2018-02-08T16:56:38.193Z,39.20
2018-02-08T16:59:04.611Z,40.07
2018-02-08T17:01:30.950Z,43.13
2018-02-08T17:03:57.353Z,44.60
2018-02-08T17:06:24.283Z,42.87
2018-02-08T17:08:50.752Z,39.67
2018-02-08T17:11:17.840Z,48.70
2018-02-08T17:13:44.580Z,44.83
2018-02-08T17:16:11.343Z,42.33
2018-02-08T17:18:38.366Z,43.60
2018-02-08T17:21:04.696Z,44.53
2018-02-08T17:23:30.987Z,49.37
2018-02-08T17:25:57.635Z,48.40
2018-02-08T17:28:23.910Z,49.10
2018-02-08T17:30:50.218Z,47.83
2018-02-08T17:33:16.639Z,52.20
2018-02-08T17:35:42.935Z,46.97
2018-02-08T17:38:09.344Z,44.30
2018-02-08T17:40:36.669Z,66.97
2018-02-08T17:43:03.103Z,47.57
2018-02-08T17:45:29.449Z,52.33
2018-02-08T17:47:57.239Z,52.33
2018-02-08T17:50:23.485Z,44.80
2018-02-08T17:52:49.840Z,45.23
2018-02-08T17:55:16.230Z,42.83
2018-02-08T17:57:42.736Z,46.43
2018-02-08T18:00:10.485Z,46.13
2018-02-08T18:02:37.108Z,48.80
2018-02-08T18:05:03.459Z,50.27
2018-02-08T18:07:30.610Z,47.20
2018-02-08T18:09:56.979Z,45.80
2018-02-08T18:12:23.447Z,46.50
2018-02-08T18:14:49.842Z,43.73
2018-02-08T18:17:16.089Z,47.20
2018-02-08T18:19:42.538Z,47.20
2018-02-08T18:22:08.855Z,49.97
2018-02-08T18:24:35.397Z,47.23
2018-02-08T18:27:01.946Z,47.43
2018-02-08T18:29:28.322Z,50.17
2018-02-08T18:31:54.916Z,49.47
2018-02-08T18:34:22.100Z,46.37
2018-02-08T18:36:48.488Z,46.20
2018-02-08T18:39:15.246Z,53.57
2018-02-08T18:41:41.492Z,50.60
2018-02-08T18:44:08.505Z,48.00
2018-02-08T18:46:35.118Z,47.70
2018-02-08T18:49:01.439Z,48.80
2018-02-08T18:51:27.780Z,48.73
2018-02-08T18:53:54.134Z,48.33
2018-02-08T18:56:20.544Z,50.40
2018-02-08T18:58:47.281Z,49.93
2018-02-08T19:01:13.874Z,48.13
2018-02-08T19:03:40.404Z,49.83
2018-02-08T19:06:06.759Z,51.60
2018-02-08T19:08:33.292Z,51.83
2018-02-08T19:10:59.812Z,48.60
2018-02-08T19:13:26.123Z,48.47
2018-02-08T19:15:52.421Z,52.60
2018-02-08T19:18:18.657Z,50.17
2018-02-08T19:20:46.409Z,51.33
2018-02-08T19:23:12.838Z,48.17
2018-02-08T19:25:39.495Z,47.20
2018-02-08T19:28:06.770Z,48.43
2018-02-08T19:30:33.325Z,48.03
2018-02-08T19:32:59.756Z,48.40
2018-02-08T19:35:27.385Z,47.07
2018-02-08T19:38:01.099Z,45.67
2018-02-08T19:40:27.878Z,45.10
2018-02-08T19:42:54.217Z,46.17
2018-02-08T19:45:20.656Z,45.90
2018-02-08T19:47:47.085Z,46.50
2018-02-08T19:50:14.011Z,43.00
2018-02-08T19:52:40.488Z,44.27
2018-02-08T19:55:07.695Z,42.90
2018-02-08T19:57:33.985Z,42.43
2018-02-08T20:00:00.354Z,45.30
2018-02-08T20:02:26.757Z,44.50
2018-02-08T20:04:53.038Z,43.70
2018-02-08T20:07:20.253Z,43.13
2018-02-08T20:09:46.817Z,42.73
2018-02-08T20:12:13.776Z,44.47
2018-02-08T20:14:42.279Z,43.43
2018-02-08T20:17:08.610Z,41.13
2018-02-08T20:19:34.863Z,40.13
2018-02-08T20:22:01.414Z,41.13
2018-02-08T20:24:27.833Z,40.67
2018-02-08T20:26:54.127Z,38.43
2018-02-08T20:29:20.451Z,42.87
2018-02-08T20:31:46.828Z,40.07
2018-02-08T20:34:13.263Z,42.23
2018-02-08T20:36:39.827Z,39.97
2018-02-08T20:39:07.025Z,40.17
2018-02-08T20:41:33.555Z,40.93
2018-02-08T20:44:00.396Z,36.87
2018-02-08T20:46:26.931Z,40.67
2018-02-08T20:48:53.352Z,41.10
2018-02-08T20:51:20.088Z,46.77
2018-02-08T20:53:47.459Z,38.27
2018-02-08T20:56:13.844Z,41.17
2018-02-08T20:58:40.244Z,38.00
2018-02-08T21:01:06.582Z,38.00
2018-02-08T21:03:33.019Z,37.90
2018-02-08T21:06:00.083Z,37.77
2018-02-08T21:08:26.410Z,38.50
2018-02-08T21:10:53.360Z,39.73
2018-02-08T21:13:20.393Z,40.30
2018-02-08T21:15:47.518Z,42.93
2018-02-08T21:18:13.959Z,38.67
2018-02-08T21:20:40.490Z,37.77
2018-02-08T21:23:07.757Z,35.77
2018-02-08T21:25:35.109Z,38.00
2018-02-08T21:28:01.466Z,44.30
2018-02-08T21:30:28.879Z,43.90
2018-02-08T21:32:55.309Z,37.53
2018-02-08T21:35:21.589Z,38.67
2018-02-08T21:37:47.953Z,39.30
2018-02-08T21:40:14.205Z,45.00
2018-02-08T21:42:41.152Z,44.27
2018-02-08T21:45:08.165Z,42.20
2018-02-08T21:47:34.282Z,41.33
2018-02-08T21:50:00.557Z,39.60
2018-02-08T21:52:27.190Z,38.27
2018-02-08T21:54:54.240Z,36.87
2018-02-08T21:57:21.173Z,37.00
2018-02-08T21:59:47.448Z,37.17
2018-02-08T22:02:13.853Z,35.63
2018-02-08T22:04:40.130Z,35.60
2018-02-08T22:07:06.404Z,38.17
2018-02-08T22:09:33.629Z,36.10
2018-02-08T22:12:00.699Z,35.93
2018-02-08T22:14:27.889Z,34.60
2018-02-08T22:16:54.240Z,34.97
2018-02-08T22:19:20.610Z,35.47
2018-02-08T22:21:47.000Z,34.63
2018-02-08T22:24:13.281Z,34.23
2018-02-08T22:26:39.622Z,34.50
2018-02-08T22:29:06.386Z,34.50
2018-02-08T22:31:32.839Z,32.10
2018-02-08T22:33:59.556Z,33.60
2018-02-08T22:36:25.998Z,33.20
2018-02-08T22:38:53.124Z,32.43
2018-02-08T22:41:19.414Z,32.70
2018-02-08T22:43:45.708Z,32.73
2018-02-08T22:46:12.916Z,33.37
2018-02-08T22:48:39.270Z,32.77
2018-02-08T22:51:05.588Z,33.20
2018-02-08T22:53:32.261Z,34.40
2018-02-08T22:55:59.337Z,32.90
2018-02-08T22:58:25.684Z,33.20
2018-02-08T23:00:51.931Z,32.40
2018-02-08T23:03:18.498Z,34.30
2018-02-08T23:05:46.287Z,32.40
2018-02-08T23:08:13.503Z,32.63
2018-02-08T23:10:40.995Z,35.73
2018-02-08T23:13:07.278Z,36.50
2018-02-08T23:15:33.711Z,37.83
2018-02-08T23:17:59.909Z,40.93
2018-02-08T23:20:26.318Z,35.40
2018-02-08T23:22:52.699Z,35.60
2018-02-08T23:25:19.084Z,36.73
2018-02-08T23:27:45.448Z,40.03
2018-02-08T23:30:11.830Z,40.33
2018-02-08T23:32:38.928Z,39.67
2018-02-08T23:35:05.567Z,38.00
2018-02-08T23:37:31.973Z,34.63
2018-02-08T23:39:58.158Z,34.80
2018-02-08T23:42:25.103Z,32.70
2018-02-08T23:44:52.044Z,31.90
2018-02-08T23:47:19.024Z,29.50
2018-02-08T23:49:45.285Z,31.67
2018-02-08T23:52:12.327Z,31.53
2018-02-08T23:54:38.775Z,32.10
2018-02-08T23:57:05.726Z,33.17
2018-02-08T23:59:32.852Z,34.50
